sensor_id;sensor_type;location;lat;lon;timestamp;P1;P2;P0
72793;PMS5003;63436;26.334;50.194;2023-04-03T00:01:49;27;26;
72793;PMS5003;63436;26.334;50.194;2023-04-03T00:04:14;25;23;
72793;PMS5003;63436;26.334;50.194;2023-04-03T00:06:40;29;26;
72793;PMS5003;63436;26.334;50.194;2023-04-03T00:09:05;26;23;
72793;PMS5003;63436;26.334;50.194;2023-04-03T00:11:30;31;25;
72793;PMS5003;63436;26.334;50.194;2023-04-03T00:13:56;26;25;
72793;PMS5003;63436;26.334;50.194;2023-04-03T00:16:22;31;25;
72793;PMS5003;63436;26.334;50.194;2023-04-03T00:18:47;26;26;
72793;PMS5003;63436;26.334;50.194;2023-04-03T00:21:13;33;28;
72793;PMS5003;63436;26.334;50.194;2023-04-03T00:23:38;28;27;
72793;PMS5003;63436;26.334;50.194;2023-04-03T00:26:04;31;28;
72793;PMS5003;63436;26.334;50.194;2023-04-03T00:28:29;27;24;
72793;PMS5003;63436;26.334;50.194;2023-04-03T00:31:01;29;27;
72793;PMS5003;63436;26.334;50.194;2023-04-03T00:33:20;26;25;
72793;PMS5003;63436;26.334;50.194;2023-04-03T00:35:45;29;27;
72793;PMS5003;63436;26.334;50.194;2023-04-03T00:38:11;31;26;
72793;PMS5003;63436;26.334;50.194;2023-04-03T00:40:38;26;26;
72793;PMS5003;63436;26.334;50.194;2023-04-03T00:43:05;30;24;
72793;PMS5003;63436;26.334;50.194;2023-04-03T00:45:31;28;25;
72793;PMS5003;63436;26.334;50.194;2023-04-03T00:47:53;24;21;
72793;PMS5003;63436;26.334;50.194;2023-04-03T00:50:19;29;26;
72793;PMS5003;63436;26.334;50.194;2023-04-03T00:52:45;25;22;
72793;PMS5003;63436;26.334;50.194;2023-04-03T00:55:11;25;24;
72793;PMS5003;63436;26.334;50.194;2023-04-03T00:57:37;22;22;
72793;PMS5003;63436;26.334;50.194;2023-04-03T01:00:04;23;23;
72793;PMS5003;63436;26.334;50.194;2023-04-03T01:02:27;23;23;
72793;PMS5003;63436;26.334;50.194;2023-04-03T01:04:53;26;25;
72793;PMS5003;63436;26.334;50.194;2023-04-03T01:07:20;25;24;
72793;PMS5003;63436;26.334;50.194;2023-04-03T01:09:45;31;27;
72793;PMS5003;63436;26.334;50.194;2023-04-03T01:12:14;27;26;
72793;PMS5003;63436;26.334;50.194;2023-04-03T01:14:36;27;25;
72793;PMS5003;63436;26.334;50.194;2023-04-03T01:17:02;24;24;
72793;PMS5003;63436;26.334;50.194;2023-04-03T01:19:27;26;26;
72793;PMS5003;63436;26.334;50.194;2023-04-03T01:21:56;30;26;
72793;PMS5003;63436;26.334;50.194;2023-04-03T01:24:23;24;23;
72793;PMS5003;63436;26.334;50.194;2023-04-03T01:26:44;21;21;
72793;PMS5003;63436;26.334;50.194;2023-04-03T01:29:10;25;23;
72793;PMS5003;63436;26.334;50.194;2023-04-03T01:31:44;27;24;
72793;PMS5003;63436;26.334;50.194;2023-04-03T01:34:01;33;26;
72793;PMS5003;63436;26.334;50.194;2023-04-03T01:36:28;21;21;
72793;PMS5003;63436;26.334;50.194;2023-04-03T01:38:57;29;25;
72793;PMS5003;63436;26.334;50.194;2023-04-03T01:41:18;27;23;
72793;PMS5003;63436;26.334;50.194;2023-04-03T01:43:43;23;22;
72793;PMS5003;63436;26.334;50.194;2023-04-03T01:46:09;24;22;
72793;PMS5003;63436;26.334;50.194;2023-04-03T01:48:35;25;23;
72793;PMS5003;63436;26.334;50.194;2023-04-03T01:51:00;26;25;
72793;PMS5003;63436;26.334;50.194;2023-04-03T01:53:26;25;22;
72793;PMS5003;63436;26.334;50.194;2023-04-03T01:55:52;28;23;
72793;PMS5003;63436;26.334;50.194;2023-04-03T01:58:17;20;20;
72793;PMS5003;63436;26.334;50.194;2023-04-03T02:00:42;25;24;
72793;PMS5003;63436;26.334;50.194;2023-04-03T02:03:08;23;23;
72793;PMS5003;63436;26.334;50.194;2023-04-03T02:05:34;26;25;
72793;PMS5003;63436;26.334;50.194;2023-04-03T02:08:00;29;25;
72793;PMS5003;63436;26.334;50.194;2023-04-03T02:10:25;28;25;
72793;PMS5003;63436;26.334;50.194;2023-04-03T02:12:51;31;27;
72793;PMS5003;63436;26.334;50.194;2023-04-03T02:15:16;25;24;
72793;PMS5003;63436;26.334;50.194;2023-04-03T02:17:41;26;24;
72793;PMS5003;63436;26.334;50.194;2023-04-03T02:20:07;27;24;
72793;PMS5003;63436;26.334;50.194;2023-04-03T02:22:33;26;25;
72793;PMS5003;63436;26.334;50.194;2023-04-03T02:24:58;26;22;
72793;PMS5003;63436;26.334;50.194;2023-04-03T02:29:50;26;24;
72793;PMS5003;63436;26.334;50.194;2023-04-03T02:32:15;23;21;
72793;PMS5003;63436;26.334;50.194;2023-04-03T02:34:40;24;23;
72793;PMS5003;63436;26.334;50.194;2023-04-03T02:37:06;24;24;
72793;PMS5003;63436;26.334;50.194;2023-04-03T02:39:32;22;22;
72793;PMS5003;63436;26.334;50.194;2023-04-03T02:41:57;27;26;
72793;PMS5003;63436;26.334;50.194;2023-04-03T02:44:23;24;24;
72793;PMS5003;63436;26.334;50.194;2023-04-03T02:46:49;23;23;
72793;PMS5003;63436;26.334;50.194;2023-04-03T02:49:14;25;25;
72793;PMS5003;63436;26.334;50.194;2023-04-03T02:51:39;23;21;
72793;PMS5003;63436;26.334;50.194;2023-04-03T02:54:06;24;22;
72793;PMS5003;63436;26.334;50.194;2023-04-03T02:56:31;29;26;
72793;PMS5003;63436;26.334;50.194;2023-04-03T02:58:56;26;24;
72793;PMS5003;63436;26.334;50.194;2023-04-03T03:01:22;22;21;
72793;PMS5003;63436;26.334;50.194;2023-04-03T03:03:48;21;19;
72793;PMS5003;63436;26.334;50.194;2023-04-03T03:06:14;25;24;
72793;PMS5003;63436;26.334;50.194;2023-04-03T03:08:39;25;24;
72793;PMS5003;63436;26.334;50.194;2023-04-03T03:11:05;24;24;
72793;PMS5003;63436;26.334;50.194;2023-04-03T03:13:30;25;22;
72793;PMS5003;63436;26.334;50.194;2023-04-03T03:15:55;28;25;
72793;PMS5003;63436;26.334;50.194;2023-04-03T03:18:21;24;24;
72793;PMS5003;63436;26.334;50.194;2023-04-03T03:20:47;22;21;
72793;PMS5003;63436;26.334;50.194;2023-04-03T03:23:13;26;25;
72793;PMS5003;63436;26.334;50.194;2023-04-03T03:25:38;27;24;
72793;PMS5003;63436;26.334;50.194;2023-04-03T03:28:03;29;25;
72793;PMS5003;63436;26.334;50.194;2023-04-03T03:30:28;27;24;
72793;PMS5003;63436;26.334;50.194;2023-04-03T03:32:54;26;24;
72793;PMS5003;63436;26.334;50.194;2023-04-03T03:35:20;26;23;
72793;PMS5003;63436;26.334;50.194;2023-04-03T03:37:45;22;22;
72793;PMS5003;63436;26.334;50.194;2023-04-03T03:40:11;26;26;
72793;PMS5003;63436;26.334;50.194;2023-04-03T03:42:36;30;24;
72793;PMS5003;63436;26.334;50.194;2023-04-03T03:45:02;27;25;
72793;PMS5003;63436;26.334;50.194;2023-04-03T03:47:32;25;22;
72793;PMS5003;63436;26.334;50.194;2023-04-03T03:49:53;24;22;
72793;PMS5003;63436;26.334;50.194;2023-04-03T03:52:18;25;24;
72793;PMS5003;63436;26.334;50.194;2023-04-03T03:54:44;26;21;
72793;PMS5003;63436;26.334;50.194;2023-04-03T03:57:10;28;26;
72793;PMS5003;63436;26.334;50.194;2023-04-03T03:59:36;24;23;
72793;PMS5003;63436;26.334;50.194;2023-04-03T04:02:01;25;24;
72793;PMS5003;63436;26.334;50.194;2023-04-03T04:04:27;24;23;
72793;PMS5003;63436;26.334;50.194;2023-04-03T04:06:52;24;24;
72793;PMS5003;63436;26.334;50.194;2023-04-03T04:09:18;27;25;
72793;PMS5003;63436;26.334;50.194;2023-04-03T04:11:43;28;27;
72793;PMS5003;63436;26.334;50.194;2023-04-03T04:14:09;24;24;
72793;PMS5003;63436;26.334;50.194;2023-04-03T04:16:34;26;24;
72793;PMS5003;63436;26.334;50.194;2023-04-03T04:19:00;32;25;
72793;PMS5003;63436;26.334;50.194;2023-04-03T04:21:25;26;23;
72793;PMS5003;63436;26.334;50.194;2023-04-03T04:23:51;26;23;
72793;PMS5003;63436;26.334;50.194;2023-04-03T04:26:16;28;25;
72793;PMS5003;63436;26.334;50.194;2023-04-03T04:28:42;38;27;
72793;PMS5003;63436;26.334;50.194;2023-04-03T04:31:07;36;30;
72793;PMS5003;63436;26.334;50.194;2023-04-03T04:33:33;27;26;
72793;PMS5003;63436;26.334;50.194;2023-04-03T04:35:59;27;26;
72793;PMS5003;63436;26.334;50.194;2023-04-03T04:38:24;25;23;
72793;PMS5003;63436;26.334;50.194;2023-04-03T04:40:49;28;24;
72793;PMS5003;63436;26.334;50.194;2023-04-03T04:43:16;23;23;
72793;PMS5003;63436;26.334;50.194;2023-04-03T04:45:39;27;23;
72793;PMS5003;63436;26.334;50.194;2023-04-03T04:48:05;27;26;
72793;PMS5003;63436;26.334;50.194;2023-04-03T04:50:31;26;24;
72793;PMS5003;63436;26.334;50.194;2023-04-03T04:52:56;25;25;
72793;PMS5003;63436;26.334;50.194;2023-04-03T04:55:21;25;25;
72793;PMS5003;63436;26.334;50.194;2023-04-03T04:57:46;35;32;
72793;PMS5003;63436;26.334;50.194;2023-04-03T05:00:13;30;30;
72793;PMS5003;63436;26.334;50.194;2023-04-03T05:02:37;37;29;
72793;PMS5003;63436;26.334;50.194;2023-04-03T05:05:03;29;29;
72793;PMS5003;63436;26.334;50.194;2023-04-03T05:07:28;30;29;
72793;PMS5003;63436;26.334;50.194;2023-04-03T05:09:53;34;32;
72793;PMS5003;63436;26.334;50.194;2023-04-03T05:12:19;32;30;
72793;PMS5003;63436;26.334;50.194;2023-04-03T05:14:45;28;27;
72793;PMS5003;63436;26.334;50.194;2023-04-03T05:17:10;29;29;
72793;PMS5003;63436;26.334;50.194;2023-04-03T05:19:35;29;29;
72793;PMS5003;63436;26.334;50.194;2023-04-03T05:22:00;28;28;
72793;PMS5003;63436;26.334;50.194;2023-04-03T05:24:31;29;25;
72793;PMS5003;63436;26.334;50.194;2023-04-03T05:26:51;30;29;
72793;PMS5003;63436;26.334;50.194;2023-04-03T05:29:16;29;28;
72793;PMS5003;63436;26.334;50.194;2023-04-03T05:31:42;28;27;
72793;PMS5003;63436;26.334;50.194;2023-04-03T05:34:07;33;26;
72793;PMS5003;63436;26.334;50.194;2023-04-03T05:36:33;34;31;
72793;PMS5003;63436;26.334;50.194;2023-04-03T05:38:58;29;29;
72793;PMS5003;63436;26.334;50.194;2023-04-03T05:41:24;32;31;
72793;PMS5003;63436;26.334;50.194;2023-04-03T05:43:50;27;25;
72793;PMS5003;63436;26.334;50.194;2023-04-03T05:46:16;31;29;
72793;PMS5003;63436;26.334;50.194;2023-04-03T05:48:41;32;29;
72793;PMS5003;63436;26.334;50.194;2023-04-03T05:51:06;29;29;
72793;PMS5003;63436;26.334;50.194;2023-04-03T05:53:33;28;28;
72793;PMS5003;63436;26.334;50.194;2023-04-03T05:55:56;31;30;
72793;PMS5003;63436;26.334;50.194;2023-04-03T05:58:22;27;27;
72793;PMS5003;63436;26.334;50.194;2023-04-03T06:00:48;33;31;
72793;PMS5003;63436;26.334;50.194;2023-04-03T06:03:13;29;29;
72793;PMS5003;63436;26.334;50.194;2023-04-03T06:05:39;28;28;
72793;PMS5003;63436;26.334;50.194;2023-04-03T06:08:04;30;29;
72793;PMS5003;63436;26.334;50.194;2023-04-03T06:10:29;33;31;
72793;PMS5003;63436;26.334;50.194;2023-04-03T06:12:55;30;29;
72793;PMS5003;63436;26.334;50.194;2023-04-03T06:15:21;29;27;
72793;PMS5003;63436;26.334;50.194;2023-04-03T06:17:45;31;28;
72793;PMS5003;63436;26.334;50.194;2023-04-03T06:20:11;30;28;
72793;PMS5003;63436;26.334;50.194;2023-04-03T06:22:37;36;36;
72793;PMS5003;63436;26.334;50.194;2023-04-03T06:25:02;31;30;
72793;PMS5003;63436;26.334;50.194;2023-04-03T06:27:27;32;32;
72793;PMS5003;63436;26.334;50.194;2023-04-03T06:29:53;30;30;
72793;PMS5003;63436;26.334;50.194;2023-04-03T06:32:18;30;29;
72793;PMS5003;63436;26.334;50.194;2023-04-03T06:34:44;35;33;
72793;PMS5003;63436;26.334;50.194;2023-04-03T06:37:10;28;27;
72793;PMS5003;63436;26.334;50.194;2023-04-03T06:39:34;33;33;
72793;PMS5003;63436;26.334;50.194;2023-04-03T06:41:59;33;33;
72793;PMS5003;63436;26.334;50.194;2023-04-03T06:44:25;33;33;
72793;PMS5003;63436;26.334;50.194;2023-04-03T06:46:51;33;32;
72793;PMS5003;63436;26.334;50.194;2023-04-03T06:49:17;32;30;
72793;PMS5003;63436;26.334;50.194;2023-04-03T06:51:41;31;30;
72793;PMS5003;63436;26.334;50.194;2023-04-03T06:54:07;29;29;
72793;PMS5003;63436;26.334;50.194;2023-04-03T06:56:33;34;29;
72793;PMS5003;63436;26.334;50.194;2023-04-03T06:58:58;34;34;
72793;PMS5003;63436;26.334;50.194;2023-04-03T07:01:25;33;31;
72793;PMS5003;63436;26.334;50.194;2023-04-03T07:03:49;31;28;
72793;PMS5003;63436;26.334;50.194;2023-04-03T07:06:16;32;31;
72793;PMS5003;63436;26.334;50.194;2023-04-03T07:08:40;33;30;
72793;PMS5003;63436;26.334;50.194;2023-04-03T07:11:06;37;34;
72793;PMS5003;63436;26.334;50.194;2023-04-03T07:13:32;30;28;
72793;PMS5003;63436;26.334;50.194;2023-04-03T07:15:57;31;30;
72793;PMS5003;63436;26.334;50.194;2023-04-03T07:18:23;32;31;
72793;PMS5003;63436;26.334;50.194;2023-04-03T07:20:48;36;33;
72793;PMS5003;63436;26.334;50.194;2023-04-03T07:23:13;30;27;
72793;PMS5003;63436;26.334;50.194;2023-04-03T07:25:42;33;31;
72793;PMS5003;63436;26.334;50.194;2023-04-03T07:28:03;34;28;
72793;PMS5003;63436;26.334;50.194;2023-04-03T07:30:29;31;27;
72793;PMS5003;63436;26.334;50.194;2023-04-03T07:32:55;29;26;
72793;PMS5003;63436;26.334;50.194;2023-04-03T07:35:20;41;35;
72793;PMS5003;63436;26.334;50.194;2023-04-03T07:37:45;26;24;
72793;PMS5003;63436;26.334;50.194;2023-04-03T07:40:11;26;26;
72793;PMS5003;63436;26.334;50.194;2023-04-03T07:42:36;30;30;
72793;PMS5003;63436;26.334;50.194;2023-04-03T07:45:01;34;33;
72793;PMS5003;63436;26.334;50.194;2023-04-03T07:47:27;29;28;
72793;PMS5003;63436;26.334;50.194;2023-04-03T07:49:56;28;28;
72793;PMS5003;63436;26.334;50.194;2023-04-03T07:52:17;34;33;
72793;PMS5003;63436;26.334;50.194;2023-04-03T07:54:42;32;32;
72793;PMS5003;63436;26.334;50.194;2023-04-03T07:57:07;31;30;
72793;PMS5003;63436;26.334;50.194;2023-04-03T07:59:33;31;28;
72793;PMS5003;63436;26.334;50.194;2023-04-03T08:01:58;32;31;
72793;PMS5003;63436;26.334;50.194;2023-04-03T08:04:24;43;35;
72793;PMS5003;63436;26.334;50.194;2023-04-03T08:06:48;50;45;
72793;PMS5003;63436;26.334;50.194;2023-04-03T08:09:14;48;44;
72793;PMS5003;63436;26.334;50.194;2023-04-03T08:11:40;52;44;
72793;PMS5003;63436;26.334;50.194;2023-04-03T08:14:05;35;33;
72793;PMS5003;63436;26.334;50.194;2023-04-03T08:16:30;32;30;
72793;PMS5003;63436;26.334;50.194;2023-04-03T08:18:55;63;47;
72793;PMS5003;63436;26.334;50.194;2023-04-03T08:21:21;37;33;
72793;PMS5003;63436;26.334;50.194;2023-04-03T08:23:47;30;27;
72793;PMS5003;63436;26.334;50.194;2023-04-03T08:26:12;25;24;
72793;PMS5003;63436;26.334;50.194;2023-04-03T08:28:36;29;26;
72793;PMS5003;63436;26.334;50.194;2023-04-03T08:31:03;29;28;
72793;PMS5003;63436;26.334;50.194;2023-04-03T08:33:27;30;26;
72793;PMS5003;63436;26.334;50.194;2023-04-03T08:35:53;25;25;
72793;PMS5003;63436;26.334;50.194;2023-04-03T08:38:18;28;26;
72793;PMS5003;63436;26.334;50.194;2023-04-03T08:40:43;31;30;
72793;PMS5003;63436;26.334;50.194;2023-04-03T08:45:38;25;25;
72793;PMS5003;63436;26.334;50.194;2023-04-03T08:48:03;26;26;
72793;PMS5003;63436;26.334;50.194;2023-04-03T08:50:28;27;25;
72793;PMS5003;63436;26.334;50.194;2023-04-03T08:52:52;30;28;
72793;PMS5003;63436;26.334;50.194;2023-04-03T08:55:21;29;27;
72793;PMS5003;63436;26.334;50.194;2023-04-03T08:57:44;26;26;
72793;PMS5003;63436;26.334;50.194;2023-04-03T09:00:14;32;29;
72793;PMS5003;63436;26.334;50.194;2023-04-03T09:02:34;29;26;
72793;PMS5003;63436;26.334;50.194;2023-04-03T09:04:59;30;29;
72793;PMS5003;63436;26.334;50.194;2023-04-03T09:07:31;33;29;
72793;PMS5003;63436;26.334;50.194;2023-04-03T09:09:49;28;28;
72793;PMS5003;63436;26.334;50.194;2023-04-03T09:12:16;28;27;
72793;PMS5003;63436;26.334;50.194;2023-04-03T09:14:41;31;29;
72793;PMS5003;63436;26.334;50.194;2023-04-03T09:17:09;30;27;
72793;PMS5003;63436;26.334;50.194;2023-04-03T09:19:34;31;30;
72793;PMS5003;63436;26.334;50.194;2023-04-03T09:21:56;29;27;
72793;PMS5003;63436;26.334;50.194;2023-04-03T09:24:22;27;24;
72793;PMS5003;63436;26.334;50.194;2023-04-03T09:26:49;25;25;
72793;PMS5003;63436;26.334;50.194;2023-04-03T09:29:15;33;28;
72793;PMS5003;63436;26.334;50.194;2023-04-03T09:31:39;32;28;
72793;PMS5003;63436;26.334;50.194;2023-04-03T09:34:05;25;24;
72793;PMS5003;63436;26.334;50.194;2023-04-03T09:41:19;24;24;
72793;PMS5003;63436;26.334;50.194;2023-04-03T09:46:17;29;28;
72793;PMS5003;63436;26.334;50.194;2023-04-03T09:48:35;30;30;
72793;PMS5003;63436;26.334;50.194;2023-04-03T09:51:01;29;28;
72793;PMS5003;63436;26.334;50.194;2023-04-03T09:53:28;27;27;
72793;PMS5003;63436;26.334;50.194;2023-04-03T09:55:52;33;30;
72793;PMS5003;63436;26.334;50.194;2023-04-03T09:58:23;28;28;
72793;PMS5003;63436;26.334;50.194;2023-04-03T10:00:43;29;27;
72793;PMS5003;63436;26.334;50.194;2023-04-03T10:05:34;26;26;
72793;PMS5003;63436;26.334;50.194;2023-04-03T10:10:25;33;31;
72793;PMS5003;63436;26.334;50.194;2023-04-03T10:15:16;30;27;
72793;PMS5003;63436;26.334;50.194;2023-04-03T10:17:45;31;29;
72793;PMS5003;63436;26.334;50.194;2023-04-03T10:20:08;30;27;
72793;PMS5003;63436;26.334;50.194;2023-04-03T10:22:34;26;26;
72793;PMS5003;63436;26.334;50.194;2023-04-03T10:25:01;29;28;
72793;PMS5003;63436;26.334;50.194;2023-04-03T10:27:26;28;26;
72793;PMS5003;63436;26.334;50.194;2023-04-03T10:29:49;27;26;
72793;PMS5003;63436;26.334;50.194;2023-04-03T10:32:18;28;25;
72793;PMS5003;63436;26.334;50.194;2023-04-03T10:34:40;27;27;
72793;PMS5003;63436;26.334;50.194;2023-04-03T10:37:06;27;25;
72793;PMS5003;63436;26.334;50.194;2023-04-03T10:39:32;31;28;
72793;PMS5003;63436;26.334;50.194;2023-04-03T10:41:59;30;26;
72793;PMS5003;63436;26.334;50.194;2023-04-03T10:46:48;25;25;
72793;PMS5003;63436;26.334;50.194;2023-04-03T10:49:16;33;26;
72793;PMS5003;63436;26.334;50.194;2023-04-03T10:51:39;30;24;
72793;PMS5003;63436;26.334;50.194;2023-04-03T10:54:04;30;29;
72793;PMS5003;63436;26.334;50.194;2023-04-03T10:56:31;29;27;
72793;PMS5003;63436;26.334;50.194;2023-04-03T10:58:55;29;28;
72793;PMS5003;63436;26.334;50.194;2023-04-03T11:01:21;24;23;
72793;PMS5003;63436;26.334;50.194;2023-04-03T11:03:46;31;30;
72793;PMS5003;63436;26.334;50.194;2023-04-03T11:06:13;29;29;
72793;PMS5003;63436;26.334;50.194;2023-04-03T11:08:37;31;29;
72793;PMS5003;63436;26.334;50.194;2023-04-03T11:11:03;25;25;
72793;PMS5003;63436;26.334;50.194;2023-04-03T11:13:28;29;27;
72793;PMS5003;63436;26.334;50.194;2023-04-03T11:15:52;27;27;
72793;PMS5003;63436;26.334;50.194;2023-04-03T11:18:18;27;25;
72793;PMS5003;63436;26.334;50.194;2023-04-03T11:20:44;26;23;
72793;PMS5003;63436;26.334;50.194;2023-04-03T11:23:12;32;29;
72793;PMS5003;63436;26.334;50.194;2023-04-03T11:25:33;32;31;
72793;PMS5003;63436;26.334;50.194;2023-04-03T11:27:59;29;29;
72793;PMS5003;63436;26.334;50.194;2023-04-03T11:30:27;28;27;
72793;PMS5003;63436;26.334;50.194;2023-04-03T11:32:55;33;30;
72793;PMS5003;63436;26.334;50.194;2023-04-03T11:35:15;27;23;
72793;PMS5003;63436;26.334;50.194;2023-04-03T11:37:41;28;27;
72793;PMS5003;63436;26.334;50.194;2023-04-03T11:40:06;34;30;
72793;PMS5003;63436;26.334;50.194;2023-04-03T11:42:33;33;31;
72793;PMS5003;63436;26.334;50.194;2023-04-03T11:49:53;29;28;
72793;PMS5003;63436;26.334;50.194;2023-04-03T11:52:12;29;29;
72793;PMS5003;63436;26.334;50.194;2023-04-03T11:54:47;31;28;
72793;PMS5003;63436;26.334;50.194;2023-04-03T11:59:29;31;29;
72793;PMS5003;63436;26.334;50.194;2023-04-03T12:01:55;26;26;
72793;PMS5003;63436;26.334;50.194;2023-04-03T12:04:20;32;27;
72793;PMS5003;63436;26.334;50.194;2023-04-03T12:11:36;37;31;
72793;PMS5003;63436;26.334;50.194;2023-04-03T12:14:03;29;27;
72793;PMS5003;63436;26.334;50.194;2023-04-03T12:16:27;34;33;
72793;PMS5003;63436;26.334;50.194;2023-04-03T12:18:55;30;30;
72793;PMS5003;63436;26.334;50.194;2023-04-03T12:21:19;29;29;
72793;PMS5003;63436;26.334;50.194;2023-04-03T12:28:36;38;33;
72793;PMS5003;63436;26.334;50.194;2023-04-03T12:31:00;34;34;
72793;PMS5003;63436;26.334;50.194;2023-04-03T12:33:28;40;37;
72793;PMS5003;63436;26.334;50.194;2023-04-03T12:35:54;29;29;
72793;PMS5003;63436;26.334;50.194;2023-04-03T12:38:19;34;32;
72793;PMS5003;63436;26.334;50.194;2023-04-03T12:40:42;36;34;
72793;PMS5003;63436;26.334;50.194;2023-04-03T12:43:11;33;31;
72793;PMS5003;63436;26.334;50.194;2023-04-03T12:47:56;36;36;
72793;PMS5003;63436;26.334;50.194;2023-04-03T12:50:22;30;28;
72793;PMS5003;63436;26.334;50.194;2023-04-03T12:52:49;33;31;
72793;PMS5003;63436;26.334;50.194;2023-04-03T12:55:14;41;38;
72793;PMS5003;63436;26.334;50.194;2023-04-03T12:57:37;39;36;
72793;PMS5003;63436;26.334;50.194;2023-04-03T13:02:29;34;32;
72793;PMS5003;63436;26.334;50.194;2023-04-03T13:04:55;32;30;
72793;PMS5003;63436;26.334;50.194;2023-04-03T13:07:21;30;30;
72793;PMS5003;63436;26.334;50.194;2023-04-03T13:12:11;37;34;
72793;PMS5003;63436;26.334;50.194;2023-04-03T13:14:37;27;27;
72793;PMS5003;63436;26.334;50.194;2023-04-03T13:17:04;31;28;
72793;PMS5003;63436;26.334;50.194;2023-04-03T13:19:28;29;28;
72793;PMS5003;63436;26.334;50.194;2023-04-03T13:21:54;30;30;
72793;PMS5003;63436;26.334;50.194;2023-04-03T13:24:18;32;31;
72793;PMS5003;63436;26.334;50.194;2023-04-03T13:26:44;29;29;
72793;PMS5003;63436;26.334;50.194;2023-04-03T13:31:35;31;28;
72793;PMS5003;63436;26.334;50.194;2023-04-03T13:34:03;26;26;
72793;PMS5003;63436;26.334;50.194;2023-04-03T13:36:27;28;28;
72793;PMS5003;63436;26.334;50.194;2023-04-03T13:38:58;26;25;
72793;PMS5003;63436;26.334;50.194;2023-04-03T13:41:24;30;28;
72793;PMS5003;63436;26.334;50.194;2023-04-03T13:43:42;25;25;
72793;PMS5003;63436;26.334;50.194;2023-04-03T13:48:37;28;27;
72793;PMS5003;63436;26.334;50.194;2023-04-03T13:50:59;29;28;
72793;PMS5003;63436;26.334;50.194;2023-04-03T13:53:24;25;25;
72793;PMS5003;63436;26.334;50.194;2023-04-03T13:55:55;28;24;
72793;PMS5003;63436;26.334;50.194;2023-04-03T14:00:46;29;27;
72793;PMS5003;63436;26.334;50.194;2023-04-03T14:03:12;30;29;
72793;PMS5003;63436;26.334;50.194;2023-04-03T14:05:30;30;29;
72793;PMS5003;63436;26.334;50.194;2023-04-03T14:07:56;29;26;
72793;PMS5003;63436;26.334;50.194;2023-04-03T14:10:21;29;26;
72793;PMS5003;63436;26.334;50.194;2023-04-03T14:12:47;30;27;
72793;PMS5003;63436;26.334;50.194;2023-04-03T14:15:16;25;24;
72793;PMS5003;63436;26.334;50.194;2023-04-03T14:17:37;22;22;
72793;PMS5003;63436;26.334;50.194;2023-04-03T14:20:04;27;26;
72793;PMS5003;63436;26.334;50.194;2023-04-03T14:22:30;22;22;
72793;PMS5003;63436;26.334;50.194;2023-04-03T14:24:54;25;24;
72793;PMS5003;63436;26.334;50.194;2023-04-03T14:27:20;29;28;
72793;PMS5003;63436;26.334;50.194;2023-04-03T14:29:44;28;26;
72793;PMS5003;63436;26.334;50.194;2023-04-03T14:32:10;28;25;
72793;PMS5003;63436;26.334;50.194;2023-04-03T14:34:35;27;26;
72793;PMS5003;63436;26.334;50.194;2023-04-03T14:37:00;28;27;
72793;PMS5003;63436;26.334;50.194;2023-04-03T14:39:26;26;24;
72793;PMS5003;63436;26.334;50.194;2023-04-03T14:41:51;26;26;
72793;PMS5003;63436;26.334;50.194;2023-04-03T14:44:16;27;26;
72793;PMS5003;63436;26.334;50.194;2023-04-03T14:46:43;28;26;
72793;PMS5003;63436;26.334;50.194;2023-04-03T14:49:09;29;28;
72793;PMS5003;63436;26.334;50.194;2023-04-03T14:51:33;33;29;
72793;PMS5003;63436;26.334;50.194;2023-04-03T14:53:58;30;28;
72793;PMS5003;63436;26.334;50.194;2023-04-03T14:56:29;30;29;
72793;PMS5003;63436;26.334;50.194;2023-04-03T14:58:57;28;27;
72793;PMS5003;63436;26.334;50.194;2023-04-03T15:01:15;28;28;
72793;PMS5003;63436;26.334;50.194;2023-04-03T15:03:40;25;25;
72793;PMS5003;63436;26.334;50.194;2023-04-03T15:06:05;27;26;
72793;PMS5003;63436;26.334;50.194;2023-04-03T15:08:30;27;27;
72793;PMS5003;63436;26.334;50.194;2023-04-03T15:10:56;30;30;
72793;PMS5003;63436;26.334;50.194;2023-04-03T15:13:21;31;28;
72793;PMS5003;63436;26.334;50.194;2023-04-03T15:15:46;32;29;
72793;PMS5003;63436;26.334;50.194;2023-04-03T15:18:14;27;26;
72793;PMS5003;63436;26.334;50.194;2023-04-03T15:20:37;30;28;
72793;PMS5003;63436;26.334;50.194;2023-04-03T15:23:03;31;31;
72793;PMS5003;63436;26.334;50.194;2023-04-03T15:25:28;27;25;
72793;PMS5003;63436;26.334;50.194;2023-04-03T15:27:54;28;26;
72793;PMS5003;63436;26.334;50.194;2023-04-03T15:30:19;28;28;
72793;PMS5003;63436;26.334;50.194;2023-04-03T15:32:44;32;31;
72793;PMS5003;63436;26.334;50.194;2023-04-03T15:35:10;34;30;
72793;PMS5003;63436;26.334;50.194;2023-04-03T15:37:35;30;28;
72793;PMS5003;63436;26.334;50.194;2023-04-03T15:40:01;31;30;
72793;PMS5003;63436;26.334;50.194;2023-04-03T15:42:26;28;27;
72793;PMS5003;63436;26.334;50.194;2023-04-03T15:44:52;29;26;
72793;PMS5003;63436;26.334;50.194;2023-04-03T15:47:17;29;28;
72793;PMS5003;63436;26.334;50.194;2023-04-03T15:49:43;29;27;
72793;PMS5003;63436;26.334;50.194;2023-04-03T15:52:08;32;29;
72793;PMS5003;63436;26.334;50.194;2023-04-03T15:54:33;33;31;
72793;PMS5003;63436;26.334;50.194;2023-04-03T15:56:59;34;31;
72793;PMS5003;63436;26.334;50.194;2023-04-03T15:59:29;31;30;
72793;PMS5003;63436;26.334;50.194;2023-04-03T16:01:50;27;25;
72793;PMS5003;63436;26.334;50.194;2023-04-03T16:04:15;29;29;
72793;PMS5003;63436;26.334;50.194;2023-04-03T16:06:40;34;34;
72793;PMS5003;63436;26.334;50.194;2023-04-03T16:09:06;29;29;
72793;PMS5003;63436;26.334;50.194;2023-04-03T16:11:32;28;28;
72793;PMS5003;63436;26.334;50.194;2023-04-03T16:13:57;34;29;
72793;PMS5003;63436;26.334;50.194;2023-04-03T16:16:23;34;28;
72793;PMS5003;63436;26.334;50.194;2023-04-03T16:18:53;27;27;
72793;PMS5003;63436;26.334;50.194;2023-04-03T16:21:14;30;29;
72793;PMS5003;63436;26.334;50.194;2023-04-03T16:23:40;29;26;
72793;PMS5003;63436;26.334;50.194;2023-04-03T16:26:05;32;32;
72793;PMS5003;63436;26.334;50.194;2023-04-03T16:28:31;32;30;
72793;PMS5003;63436;26.334;50.194;2023-04-03T16:30:56;28;27;
72793;PMS5003;63436;26.334;50.194;2023-04-03T16:33:22;33;31;
72793;PMS5003;63436;26.334;50.194;2023-04-03T16:35:47;29;28;
72793;PMS5003;63436;26.334;50.194;2023-04-03T16:40:39;29;29;
72793;PMS5003;63436;26.334;50.194;2023-04-03T16:43:04;33;30;
72793;PMS5003;63436;26.334;50.194;2023-04-03T16:45:29;32;30;